Rardin, Illinois
Current Conditions -  °F | °C
As of 6:53 PM on Saturday 22 Nov 2014 (Local Time) from KMTO Reporting Station
Overcast Overcast  
Wind Chill: 53°   Ceiling: 8000
Heat Index: 53°   Visibility: 10mi
Dew Point: 45°   Wind: 10mph
Humidity: 74%   Direction: 180°S
Pressure: 29.96"   Gusts: NA
Location:  39.5548°N, 88.1725°W
Report Text: KMTO 230053Z AUTO 18009KT 10SM FEW060 OVC080 12/07 A2996 RMK AO2 RAE47 SLP147 P0001 T01170072
Loading
Personal Weather Stations






























Interactive Weather Map New forecast layout! Learn more

10-Day Weather Forecast

Advertisements
Track Severe Weather on mobile